createdAt,value
2023-04-25T00:01:48.967Z,10.73
2023-04-25T00:04:22.996Z,10.72
2023-04-25T00:06:55.966Z,10.60
2023-04-25T00:09:28.848Z,10.61
2023-04-25T00:12:02.950Z,10.58
2023-04-25T00:14:36.460Z,10.60
2023-04-25T00:17:09.161Z,10.65
2023-04-25T00:19:41.782Z,10.66
2023-04-25T00:22:14.605Z,10.57
2023-04-25T00:24:47.157Z,10.58
2023-04-25T00:27:21.081Z,10.52
2023-04-25T00:29:53.671Z,10.50
2023-04-25T00:32:26.393Z,10.47
2023-04-25T00:34:59.649Z,10.42
2023-04-25T00:37:32.505Z,10.37
2023-04-25T00:40:07.365Z,10.42
2023-04-25T00:42:42.640Z,10.51
2023-04-25T00:45:16.225Z,10.50
2023-04-25T00:47:49.524Z,10.49
2023-04-25T00:50:22.102Z,10.59
2023-04-25T00:52:54.873Z,10.57
2023-04-25T00:55:27.477Z,10.64
2023-04-25T00:58:01.456Z,10.55
2023-04-25T01:00:34.092Z,10.60
2023-04-25T01:03:06.842Z,10.57
2023-04-25T01:05:42.622Z,10.50
2023-04-25T01:08:15.916Z,10.43
2023-04-25T01:10:48.518Z,10.51
2023-04-25T01:13:22.970Z,10.52
2023-04-25T01:15:56.709Z,10.49
2023-04-25T01:18:29.314Z,10.54
2023-04-25T01:21:08.246Z,10.55
2023-04-25T01:23:41.837Z,10.55
2023-04-25T01:26:15.050Z,10.52
2023-04-25T01:28:48.079Z,10.49
2023-04-25T01:31:21.484Z,10.47
2023-04-25T01:33:54.299Z,10.46
2023-04-25T01:36:29.048Z,10.55
2023-04-25T01:39:02.085Z,10.51
2023-04-25T01:41:35.441Z,10.41
2023-04-25T01:44:08.519Z,10.44
2023-04-25T01:46:42.230Z,10.41
2023-04-25T01:49:14.785Z,10.46
2023-04-25T01:51:50.882Z,10.45
2023-04-25T01:54:23.576Z,10.42
2023-04-25T01:56:59.053Z,10.34
2023-04-25T01:59:31.686Z,10.33
2023-04-25T02:02:13.425Z,10.42
2023-04-25T02:04:46.496Z,10.45
2023-04-25T02:07:20.906Z,10.40
2023-04-25T02:09:57.385Z,10.43
2023-04-25T02:12:30.502Z,10.44
2023-04-25T02:15:23.003Z,10.37
2023-04-25T02:17:58.916Z,10.35
2023-04-25T02:20:32.436Z,10.35
2023-04-25T02:23:06.369Z,10.35
2023-04-25T02:25:39.004Z,10.36
2023-04-25T02:28:11.608Z,10.35
2023-04-25T02:30:44.261Z,10.41
2023-04-25T02:33:17.990Z,10.38
2023-04-25T02:35:50.785Z,10.40
2023-04-25T02:38:24.695Z,10.41
2023-04-25T02:40:57.382Z,10.36
2023-04-25T02:43:32.325Z,10.36
2023-04-25T02:46:05.420Z,10.31
2023-04-25T02:48:37.972Z,10.30
2023-04-25T02:51:10.560Z,10.31
2023-04-25T02:53:44.465Z,10.32
2023-04-25T02:56:17.140Z,10.31
2023-04-25T02:58:49.778Z,10.31
2023-04-25T03:01:22.594Z,10.31
2023-04-25T03:03:55.732Z,10.35
2023-04-25T03:06:28.593Z,10.32
2023-04-25T03:09:02.605Z,10.27
2023-04-25T03:11:35.233Z,10.23
2023-04-25T03:14:07.908Z,10.32
2023-04-25T03:16:40.648Z,10.32
2023-04-25T03:19:13.191Z,10.28
2023-04-25T03:21:45.917Z,10.30
2023-04-25T03:24:20.309Z,10.21
2023-04-25T03:26:53.061Z,10.26
2023-04-25T03:29:27.487Z,10.19
2023-04-25T03:32:01.592Z,10.22
2023-04-25T03:34:34.343Z,10.21
2023-04-25T03:37:07.023Z,10.15
2023-04-25T03:39:45.083Z,10.11
2023-04-25T03:42:17.774Z,10.11
2023-04-25T03:44:51.056Z,10.10
2023-04-25T03:47:23.805Z,10.07
2023-04-25T03:49:56.699Z,10.18
2023-04-25T03:52:29.787Z,10.20
2023-04-25T03:55:03.857Z,10.22
2023-04-25T03:57:36.598Z,10.24
2023-04-25T04:00:10.199Z,10.24
2023-04-25T04:02:48.610Z,10.23
2023-04-25T04:05:21.474Z,10.23
2023-04-25T04:07:59.662Z,10.22
2023-04-25T04:10:34.561Z,10.24
2023-04-25T04:13:07.114Z,10.22
2023-04-25T04:15:39.684Z,10.16
2023-04-25T04:18:12.242Z,10.18
2023-04-25T04:20:45.293Z,10.17
2023-04-25T04:23:18.329Z,10.16
2023-04-25T04:25:53.220Z,10.09
2023-04-25T04:28:36.731Z,10.06
2023-04-25T04:31:21.305Z,10.00
2023-04-25T04:33:54.151Z,9.95
2023-04-25T04:36:27.504Z,10.01
2023-04-25T04:39:04.665Z,9.91
2023-04-25T04:41:58.800Z,9.93
2023-04-25T04:44:46.459Z,10.00
2023-04-25T04:47:42.397Z,9.91
2023-04-25T04:50:22.207Z,9.90
2023-04-25T04:53:13.498Z,9.91
2023-04-25T04:56:06.743Z,9.90
2023-04-25T04:59:02.856Z,9.86
2023-04-25T05:01:41.608Z,9.86
2023-04-25T05:04:29.307Z,9.87
2023-04-25T05:07:22.010Z,9.79
2023-04-25T05:10:24.766Z,9.73
2023-04-25T05:13:03.824Z,9.74
2023-04-25T05:15:56.585Z,9.75
2023-04-25T05:18:55.092Z,9.72
2023-04-25T05:21:35.346Z,9.68
2023-04-25T05:24:26.475Z,9.72
2023-04-25T05:27:18.335Z,9.64
2023-04-25T05:30:13.438Z,9.63
2023-04-25T05:33:22.827Z,9.64
2023-04-25T05:35:55.548Z,9.66
2023-04-25T05:38:28.937Z,9.68
2023-04-25T05:41:27.650Z,9.66
2023-04-25T05:44:07.563Z,9.69
2023-04-25T05:47:06.392Z,9.79
2023-04-25T05:50:10.611Z,9.82
2023-04-25T05:53:09.846Z,9.81
2023-04-25T05:55:45.960Z,9.83
2023-04-25T05:58:30.322Z,9.89
2023-04-25T06:01:04.732Z,9.86
2023-04-25T06:03:39.015Z,9.87
2023-04-25T06:06:13.289Z,9.80
2023-04-25T06:08:45.901Z,9.91
2023-04-25T06:11:18.425Z,9.95
2023-04-25T06:13:51.504Z,9.98
2023-04-25T06:16:26.906Z,10.04
2023-04-25T06:18:59.632Z,9.96
2023-04-25T06:21:33.693Z,9.97
2023-04-25T06:24:06.463Z,10.02
2023-04-25T06:26:41.491Z,10.00
2023-04-25T06:29:14.258Z,10.02
2023-04-25T06:31:47.192Z,10.15
2023-04-25T06:34:19.873Z,10.11
2023-04-25T06:36:53.768Z,10.10
2023-04-25T06:39:27.449Z,10.16
2023-04-25T06:42:01.491Z,10.19
2023-04-25T06:44:59.878Z,10.20
2023-04-25T06:47:34.934Z,10.18
2023-04-25T06:50:08.788Z,10.21
2023-04-25T06:52:43.735Z,10.20
2023-04-25T06:55:16.753Z,10.22
2023-04-25T06:58:07.359Z,10.24
2023-04-25T07:00:57.391Z,10.26
2023-04-25T07:03:32.330Z,10.36
2023-04-25T07:06:09.762Z,10.40
2023-04-25T07:08:43.690Z,10.40
2023-04-25T07:11:17.298Z,10.45
2023-04-25T07:13:49.925Z,10.62
2023-04-25T07:16:22.628Z,10.77
2023-04-25T07:18:55.431Z,10.93
2023-04-25T07:21:28.108Z,11.03
2023-04-25T07:24:03.469Z,11.08
2023-04-25T07:27:27.644Z,11.10
2023-04-25T07:30:05.310Z,11.25
2023-04-25T07:32:38.123Z,11.31
2023-04-25T07:35:10.907Z,11.39
2023-04-25T07:41:17.620Z,11.59
2023-04-25T07:43:50.286Z,11.68
2023-04-25T07:46:23.251Z,11.78
2023-04-25T07:48:55.797Z,11.93
2023-04-25T07:51:28.772Z,11.91
2023-04-25T07:54:06.273Z,12.08
2023-04-25T07:56:52.173Z,12.25
2023-04-25T07:59:29.853Z,12.30
2023-04-25T08:02:04.488Z,12.39
2023-04-25T08:04:37.418Z,12.45
2023-04-25T08:07:13.927Z,12.60
2023-04-25T08:09:56.396Z,12.62
2023-04-25T08:12:34.844Z,12.68
2023-04-25T08:15:08.569Z,12.82
2023-04-25T08:17:44.985Z,12.85
2023-04-25T08:20:18.739Z,13.00
2023-04-25T08:22:51.574Z,12.97
2023-04-25T08:25:37.040Z,12.97
2023-04-25T08:28:11.824Z,13.09
2023-04-25T08:30:44.985Z,13.04
2023-04-25T08:33:19.777Z,12.87
2023-04-25T08:36:05.445Z,12.93
2023-04-25T08:38:38.596Z,12.98
2023-04-25T08:41:16.282Z,13.12
2023-04-25T08:43:50.642Z,13.23
2023-04-25T08:46:23.586Z,13.37
2023-04-25T08:49:10.002Z,13.31
2023-04-25T08:51:48.807Z,13.36
2023-04-25T08:54:35.608Z,13.31
2023-04-25T08:57:11.694Z,13.19
2023-04-25T08:59:46.983Z,13.36
2023-04-25T09:02:21.844Z,13.60
2023-04-25T09:04:57.103Z,13.60
2023-04-25T09:07:29.795Z,13.59
2023-04-25T09:10:04.359Z,13.53
2023-04-25T09:12:40.708Z,13.61
2023-04-25T09:17:57.676Z,13.61
2023-04-25T09:20:35.226Z,13.48
2023-04-25T09:23:08.278Z,13.54
2023-04-25T09:25:44.374Z,13.53
2023-04-25T09:28:16.961Z,13.50
2023-04-25T09:30:51.093Z,13.74
2023-04-25T09:33:29.797Z,13.76
2023-04-25T09:36:06.809Z,13.70
2023-04-25T09:38:51.754Z,13.86
2023-04-25T09:41:29.003Z,13.92
2023-04-25T09:44:05.917Z,13.92
2023-04-25T09:46:43.263Z,13.99
2023-04-25T09:49:24.449Z,14.12
2023-04-25T09:52:15.843Z,14.13
2023-04-25T09:54:57.599Z,14.24
2023-04-25T09:57:40.615Z,14.27
2023-04-25T10:00:14.688Z,14.50
2023-04-25T10:02:49.356Z,14.70
2023-04-25T10:05:49.148Z,14.81
2023-04-25T10:08:24.683Z,15.02
2023-04-25T10:10:57.316Z,15.14
2023-04-25T10:13:30.617Z,15.26
2023-04-25T10:16:05.685Z,15.37
2023-04-25T10:18:39.600Z,15.66
2023-04-25T10:21:12.504Z,15.73
2023-04-25T10:23:46.539Z,15.82
2023-04-25T10:26:19.294Z,15.65
2023-04-25T10:28:58.090Z,15.85
2023-04-25T10:31:34.398Z,15.82
2023-04-25T10:34:11.553Z,15.94
2023-04-25T10:36:44.245Z,15.90
2023-04-25T10:39:23.496Z,16.09
2023-04-25T10:41:58.114Z,16.29
2023-04-25T10:44:31.114Z,16.37
2023-04-25T10:47:06.595Z,16.36
2023-04-25T10:49:43.643Z,16.41
2023-04-25T10:52:17.294Z,16.42
2023-04-25T10:54:51.166Z,16.50
2023-04-25T10:57:30.758Z,16.56
2023-04-25T11:00:07.167Z,16.66
2023-04-25T11:02:42.470Z,16.67
2023-04-25T11:05:22.542Z,16.61
2023-04-25T11:08:06.328Z,16.71
2023-04-25T11:10:42.132Z,16.93
2023-04-25T11:13:15.456Z,16.91
2023-04-25T11:16:03.054Z,16.97
2023-04-25T11:18:44.901Z,17.19
2023-04-25T11:21:19.012Z,17.19
2023-04-25T11:23:51.734Z,17.22
2023-04-25T11:26:24.671Z,17.39
2023-04-25T11:29:01.251Z,17.53
2023-04-25T11:31:33.960Z,17.56
2023-04-25T11:34:06.562Z,17.51
2023-04-25T11:36:40.806Z,17.65
2023-04-25T11:39:13.329Z,17.78
2023-04-25T11:41:46.087Z,17.77
2023-04-25T11:44:18.957Z,17.75
2023-04-25T11:46:51.530Z,17.87
2023-04-25T11:49:25.752Z,17.98
2023-04-25T11:51:59.904Z,17.84
2023-04-25T11:54:32.455Z,17.94
2023-04-25T11:57:06.171Z,18.10
2023-04-25T11:59:38.773Z,18.23
2023-04-25T12:02:25.753Z,18.20
2023-04-25T12:05:07.872Z,18.31
2023-04-25T12:07:55.000Z,18.46
2023-04-25T12:10:28.133Z,18.56
2023-04-25T12:13:01.384Z,18.63
2023-04-25T12:15:35.617Z,18.61
2023-04-25T12:18:08.585Z,18.61
2023-04-25T12:20:41.225Z,18.81
2023-04-25T12:23:15.185Z,18.74
2023-04-25T12:25:48.189Z,18.94
2023-04-25T12:28:21.945Z,18.98
2023-04-25T12:30:58.426Z,18.86
2023-04-25T12:33:32.014Z,18.98
2023-04-25T12:36:09.457Z,18.96
2023-04-25T12:38:43.778Z,18.96
2023-04-25T12:41:16.252Z,18.99
2023-04-25T12:43:48.921Z,18.96
2023-04-25T12:46:21.529Z,19.10
2023-04-25T12:48:54.121Z,19.18
2023-04-25T12:51:28.678Z,19.26
2023-04-25T12:54:02.797Z,19.23
2023-04-25T12:56:35.332Z,19.40
2023-04-25T12:59:07.879Z,19.39
2023-04-25T13:01:40.630Z,19.37
2023-04-25T13:04:13.453Z,19.29
2023-04-25T13:06:45.972Z,19.42
2023-04-25T13:09:19.864Z,19.52
2023-04-25T13:11:54.804Z,19.47
2023-04-25T13:14:28.860Z,19.50
2023-04-25T13:17:01.911Z,19.46
2023-04-25T13:19:34.562Z,19.44
2023-04-25T13:22:07.138Z,19.64
2023-04-25T13:24:41.077Z,19.69
2023-04-25T13:27:14.065Z,19.84
2023-04-25T13:29:46.655Z,19.84
2023-04-25T13:32:19.193Z,19.80
2023-04-25T13:34:53.916Z,19.78
2023-04-25T13:37:26.574Z,19.80
2023-04-25T13:40:00.853Z,19.71
2023-04-25T13:42:34.015Z,19.82
2023-04-25T13:45:07.549Z,19.71
2023-04-25T13:47:40.289Z,19.65
2023-04-25T13:50:13.163Z,19.59
2023-04-25T13:52:45.982Z,19.52
2023-04-25T13:55:20.059Z,19.56
2023-04-25T13:57:52.763Z,19.67
2023-04-25T14:00:25.377Z,19.80
2023-04-25T14:02:58.097Z,19.83
2023-04-25T14:05:30.704Z,19.76
2023-04-25T14:08:03.239Z,19.73
2023-04-25T14:10:37.791Z,19.79
2023-04-25T14:13:10.959Z,19.81
2023-04-25T14:15:43.639Z,19.91
2023-04-25T14:18:16.148Z,19.91
2023-04-25T14:20:48.902Z,19.90
2023-04-25T14:23:21.394Z,19.86
2023-04-25T14:25:55.463Z,19.95
2023-04-25T14:28:28.048Z,19.93
2023-04-25T14:31:01.595Z,19.88
2023-04-25T14:33:34.268Z,19.88
2023-04-25T14:36:07.545Z,19.96
2023-04-25T14:38:40.098Z,19.97
2023-04-25T14:41:13.963Z,19.97
2023-04-25T14:43:46.459Z,19.89
2023-04-25T14:46:19.109Z,19.95
2023-04-25T14:48:51.851Z,19.85
2023-04-25T14:51:24.476Z,19.83
2023-04-25T14:53:57.218Z,19.83
2023-04-25T14:56:31.471Z,19.82
2023-04-25T14:59:04.157Z,19.93
2023-04-25T15:01:37.101Z,19.95
2023-04-25T15:04:09.963Z,20.07
2023-04-25T15:06:42.716Z,20.02
2023-04-25T15:09:17.213Z,20.07
2023-04-25T15:11:51.180Z,20.09
2023-04-25T15:14:23.748Z,20.07
2023-04-25T15:16:56.622Z,20.07
2023-04-25T15:19:29.175Z,20.05
2023-04-25T15:22:02.387Z,19.93
2023-04-25T15:24:35.014Z,20.02
2023-04-25T15:27:09.361Z,19.94
2023-04-25T15:29:42.604Z,19.91
2023-04-25T15:32:15.286Z,19.87
2023-04-25T15:34:47.887Z,19.92
2023-04-25T15:37:20.541Z,19.92
2023-04-25T15:40:02.080Z,19.92
2023-04-25T15:42:36.159Z,20.02
2023-04-25T15:45:09.368Z,20.04
2023-04-25T15:47:42.036Z,19.98
2023-04-25T15:50:15.787Z,19.90
2023-04-25T15:52:49.415Z,19.79
2023-04-25T15:55:22.427Z,19.67
2023-04-25T15:57:56.314Z,19.59
2023-04-25T16:00:29.177Z,19.60
2023-04-25T16:03:01.949Z,19.55
2023-04-25T16:05:34.583Z,19.42
2023-04-25T16:08:07.137Z,19.42
2023-04-25T16:10:39.729Z,19.34
2023-04-25T16:13:13.650Z,19.20
2023-04-25T16:15:46.137Z,19.15
2023-04-25T16:18:18.986Z,18.96
2023-04-25T16:20:51.616Z,18.96
2023-04-25T16:23:24.235Z,18.87
2023-04-25T16:25:56.801Z,18.75
2023-04-25T16:28:31.124Z,18.70
2023-04-25T16:31:03.718Z,18.62
2023-04-25T16:33:36.729Z,18.47
2023-04-25T16:36:09.595Z,18.50
2023-04-25T16:38:42.141Z,18.45
2023-04-25T16:41:14.734Z,18.33
2023-04-25T16:43:49.035Z,18.27
2023-04-25T16:46:21.673Z,18.17
2023-04-25T16:48:54.379Z,18.12
2023-04-25T16:51:28.130Z,18.07
2023-04-25T16:54:01.252Z,17.99
2023-04-25T16:56:33.776Z,17.93
2023-04-25T16:59:08.285Z,17.83
2023-04-25T17:01:41.218Z,17.69
2023-04-25T17:04:13.820Z,17.62
2023-04-25T17:06:46.432Z,17.55
2023-04-25T17:09:18.960Z,17.52
2023-04-25T17:11:51.642Z,17.50
2023-04-25T17:14:25.670Z,17.31
2023-04-25T17:16:58.200Z,17.18
2023-04-25T17:19:31.080Z,17.14
2023-04-25T17:22:03.641Z,17.03
2023-04-25T17:24:36.604Z,17.06
2023-04-25T17:27:09.406Z,16.89
2023-04-25T17:29:43.334Z,16.84
2023-04-25T17:32:17.367Z,16.85
2023-04-25T17:34:50.302Z,16.82
2023-04-25T17:37:26.802Z,16.75
2023-04-25T17:39:59.484Z,16.69
2023-04-25T17:42:32.050Z,16.65
2023-04-25T17:45:07.080Z,16.54
2023-04-25T17:47:40.072Z,16.49
2023-04-25T17:50:16.890Z,16.40
2023-04-25T17:52:49.416Z,16.32
2023-04-25T17:55:22.061Z,16.25
2023-04-25T17:57:54.661Z,16.25
2023-04-25T18:02:07.449Z,16.59
2023-04-25T18:04:43.580Z,16.62
2023-04-25T18:07:19.491Z,16.64
2023-04-25T18:09:52.290Z,16.56
2023-04-25T18:12:28.000Z,16.46
2023-04-25T18:15:01.000Z,16.36
2023-04-25T18:17:39.963Z,16.39
2023-04-25T18:20:16.488Z,16.24
2023-04-25T18:22:49.324Z,16.22
2023-04-25T18:25:22.003Z,16.08
2023-04-25T18:27:54.809Z,16.02
2023-04-25T18:30:27.499Z,15.88
2023-04-25T18:33:01.673Z,15.78
2023-04-25T18:35:34.672Z,15.67
2023-04-25T18:38:07.557Z,15.64
2023-04-25T18:40:47.134Z,15.53
2023-04-25T18:43:26.955Z,15.41
2023-04-25T18:45:59.705Z,15.36
2023-04-25T18:48:34.350Z,15.19
2023-04-25T18:51:07.284Z,15.12
2023-04-25T18:53:39.962Z,15.04
2023-04-25T18:56:13.619Z,14.97
2023-04-25T18:58:46.783Z,14.77
2023-04-25T19:01:19.997Z,14.40
2023-04-25T19:03:56.607Z,14.41
2023-04-25T19:06:32.886Z,14.33
2023-04-25T19:09:06.208Z,14.34
2023-04-25T19:11:39.563Z,14.29
2023-04-25T19:14:14.283Z,14.14
2023-04-25T19:16:47.088Z,14.13
2023-04-25T19:19:22.056Z,14.13
2023-04-25T19:21:55.044Z,14.00
2023-04-25T19:24:27.814Z,14.01
2023-04-25T19:27:00.719Z,13.98
2023-04-25T19:29:34.641Z,13.79
2023-04-25T19:32:08.038Z,13.83
2023-04-25T19:34:42.738Z,13.74
2023-04-25T19:37:15.526Z,13.86
2023-04-25T19:39:48.355Z,13.80
2023-04-25T19:42:21.217Z,13.63
2023-04-25T19:44:54.386Z,13.51
2023-04-25T19:47:28.255Z,13.61
2023-04-25T19:50:04.370Z,13.48
2023-04-25T19:52:37.512Z,13.33
2023-04-25T19:55:11.318Z,13.26
2023-04-25T19:57:44.136Z,13.24
2023-04-25T20:00:19.955Z,13.13
2023-04-25T20:02:53.632Z,13.15
2023-04-25T20:05:28.035Z,13.22
2023-04-25T20:08:00.833Z,13.07
2023-04-25T20:10:33.735Z,13.21
2023-04-25T20:13:06.473Z,13.24
2023-04-25T20:15:40.586Z,13.26
2023-04-25T20:18:13.799Z,13.07
2023-04-25T20:20:48.158Z,13.02
2023-04-25T20:23:21.741Z,13.03
2023-04-25T20:25:54.621Z,13.03
2023-04-25T20:28:27.721Z,12.92
2023-04-25T20:31:00.695Z,12.95
2023-04-25T20:33:33.293Z,12.92
2023-04-25T20:36:07.609Z,12.85
2023-04-25T20:38:40.617Z,12.80
2023-04-25T20:41:13.416Z,12.68
2023-04-25T20:43:47.161Z,12.67
2023-04-25T20:46:20.181Z,12.83
2023-04-25T20:48:53.312Z,12.79
2023-04-25T20:51:27.671Z,12.73
2023-04-25T20:54:00.512Z,12.71
2023-04-25T20:56:33.885Z,12.71
2023-04-25T20:59:06.546Z,12.64
2023-04-25T21:01:39.299Z,12.59
2023-04-25T21:04:12.276Z,12.65
2023-04-25T21:06:46.599Z,12.62
2023-04-25T21:09:19.303Z,12.57
2023-04-25T21:11:52.072Z,12.53
2023-04-25T21:14:25.515Z,12.50
2023-04-25T21:16:58.241Z,12.52
2023-04-25T21:19:33.293Z,12.57
2023-04-25T21:22:07.381Z,12.52
2023-04-25T21:24:40.234Z,12.48
2023-04-25T21:27:12.866Z,12.36
2023-04-25T21:29:46.520Z,12.36
2023-04-25T21:32:21.863Z,12.41
2023-04-25T21:34:54.528Z,12.31
2023-04-25T21:37:28.622Z,12.36
2023-04-25T21:40:01.391Z,12.43
2023-04-25T21:42:34.718Z,12.36
2023-04-25T21:45:09.036Z,12.33
2023-04-25T21:47:41.682Z,12.29
2023-04-25T21:50:15.189Z,12.34
2023-04-25T21:52:49.313Z,12.32
2023-04-25T21:55:22.599Z,12.28
2023-04-25T21:57:55.319Z,12.26
2023-04-25T22:00:28.350Z,12.25
2023-04-25T22:03:01.441Z,12.27
2023-04-25T22:05:34.969Z,12.22
2023-04-25T22:08:09.321Z,12.30
2023-04-25T22:10:42.763Z,12.20
2023-04-25T22:13:16.372Z,12.13
2023-04-25T22:15:49.708Z,12.10
2023-04-25T22:18:22.628Z,12.06
2023-04-25T22:20:55.461Z,12.01
2023-04-25T22:23:29.469Z,12.02
2023-04-25T22:26:02.524Z,12.08
2023-04-25T22:28:35.844Z,12.01
2023-04-25T22:31:08.691Z,12.00
2023-04-25T22:33:44.678Z,12.03
2023-04-25T22:36:17.798Z,11.96
2023-04-25T22:38:52.709Z,11.96
2023-04-25T22:41:25.964Z,11.85
2023-04-25T22:43:58.629Z,11.85
2023-04-25T22:46:31.388Z,11.86
2023-04-25T22:49:04.699Z,11.78
2023-04-25T22:51:37.946Z,11.72
2023-04-25T22:54:11.942Z,11.76
2023-04-25T22:56:45.212Z,11.69
2023-04-25T22:59:18.195Z,11.68
2023-04-25T23:01:51.527Z,11.64
2023-04-25T23:04:25.172Z,11.58
2023-04-25T23:06:58.513Z,11.59
2023-04-25T23:09:34.266Z,11.60
2023-04-25T23:12:07.609Z,11.47
2023-04-25T23:14:40.243Z,11.54
2023-04-25T23:17:13.110Z,11.51
2023-04-25T23:19:46.686Z,11.40
2023-04-25T23:22:19.305Z,11.35
2023-04-25T23:24:53.423Z,11.33
2023-04-25T23:27:26.133Z,11.29
2023-04-25T23:29:58.890Z,11.21
2023-04-25T23:32:31.894Z,11.17
2023-04-25T23:35:05.301Z,11.12
2023-04-25T23:37:39.142Z,11.12
2023-04-25T23:40:13.610Z,11.13
2023-04-25T23:42:46.470Z,11.10
2023-04-25T23:45:19.114Z,11.03
2023-04-25T23:47:52.533Z,11.09
2023-04-25T23:50:25.341Z,11.06
2023-04-25T23:52:58.005Z,11.01
2023-04-25T23:55:32.528Z,10.94
2023-04-25T23:58:06.197Z,10.91
